Wooler, United Kingdom
Current Conditions -  °F | °C
As of 5:50 PM on Wednesday 26 Nov 2014 (Local Time) from EGQM Reporting Station
Drizzle Drizzle  
Wind Chill: 44°   Ceiling: 1100
Heat Index: 46°   Visibility: 1.9mi
Dew Point: 45°   Wind: 6mph
Humidity: 93%   Direction: 70°ENE
Pressure: 29.85"   Gusts: NA
Location:  55.55°N, 2.01°W
Report Text: EGQM 261750Z AUTO 07005KT 3100 -DZ BKN011/// SCT022/// BKN027/// 08/07 Q1011
Loading
Personal Weather Stations






























Interactive Weather Map New forecast layout! Learn more

10-Day Weather Forecast

Advertisements
Track Severe Weather on mobile